sensor_id;sensor_type;location;lat;lon;timestamp;P1;durP1;ratioP1;P2;durP2;ratioP2
83194;SDS011;73090;49.282;11.402;2023-12-04T00:00:50;16.80;;;7.75;;
83194;SDS011;73090;49.282;11.402;2023-12-04T00:04:52;15.02;;;6.18;;
83194;SDS011;73090;49.282;11.402;2023-12-04T00:08:54;19.27;;;7.50;;
83194;SDS011;73090;49.282;11.402;2023-12-04T00:12:56;12.10;;;8.05;;
83194;SDS011;73090;49.282;11.402;2023-12-04T00:16:57;11.85;;;7.88;;
83194;SDS011;73090;49.282;11.402;2023-12-04T00:20:59;12.85;;;8.65;;
83194;SDS011;73090;49.282;11.402;2023-12-04T00:25:00;12.75;;;5.75;;
83194;SDS011;73090;49.282;11.402;2023-12-04T00:29:02;10.73;;;6.78;;
83194;SDS011;73090;49.282;11.402;2023-12-04T00:33:04;12.73;;;7.32;;
83194;SDS011;73090;49.282;11.402;2023-12-04T00:37:07;14.57;;;8.75;;
83194;SDS011;73090;49.282;11.402;2023-12-04T00:41:10;14.15;;;8.68;;
83194;SDS011;73090;49.282;11.402;2023-12-04T00:45:12;19.10;;;8.60;;
83194;SDS011;73090;49.282;11.402;2023-12-04T00:49:14;13.90;;;7.60;;
83194;SDS011;73090;49.282;11.402;2023-12-04T00:53:16;11.43;;;5.07;;
83194;SDS011;73090;49.282;11.402;2023-12-04T00:57:17;15.98;;;8.88;;
83194;SDS011;73090;49.282;11.402;2023-12-04T01:01:27;6.97;;;4.63;;
83194;SDS011;73090;49.282;11.402;2023-12-04T01:05:28;13.00;;;6.50;;
83194;SDS011;73090;49.282;11.402;2023-12-04T01:09:30;14.13;;;8.38;;
83194;SDS011;73090;49.282;11.402;2023-12-04T01:13:32;17.15;;;8.60;;
83194;SDS011;73090;49.282;11.402;2023-12-04T01:17:34;28.80;;;10.23;;
83194;SDS011;73090;49.282;11.402;2023-12-04T01:21:36;15.88;;;11.48;;
83194;SDS011;73090;49.282;11.402;2023-12-04T01:25:38;17.88;;;8.00;;
83194;SDS011;73090;49.282;11.402;2023-12-04T01:29:39;20.20;;;11.57;;
83194;SDS011;73090;49.282;11.402;2023-12-04T01:33:41;20.45;;;8.35;;
83194;SDS011;73090;49.282;11.402;2023-12-04T01:37:43;17.25;;;9.38;;
83194;SDS011;73090;49.282;11.402;2023-12-04T01:41:45;17.38;;;9.43;;
83194;SDS011;73090;49.282;11.402;2023-12-04T01:45:46;10.50;;;5.05;;
83194;SDS011;73090;49.282;11.402;2023-12-04T01:49:48;7.75;;;4.97;;
83194;SDS011;73090;49.282;11.402;2023-12-04T01:53:50;7.85;;;7.15;;
83194;SDS011;73090;49.282;11.402;2023-12-04T01:57:52;18.70;;;6.75;;
83194;SDS011;73090;49.282;11.402;2023-12-04T02:01:54;14.20;;;5.30;;
83194;SDS011;73090;49.282;11.402;2023-12-04T02:05:58;9.60;;;8.40;;
83194;SDS011;73090;49.282;11.402;2023-12-04T02:10:01;7.93;;;5.03;;
83194;SDS011;73090;49.282;11.402;2023-12-04T02:14:03;10.13;;;8.10;;
83194;SDS011;73090;49.282;11.402;2023-12-04T02:18:05;17.08;;;8.55;;
83194;SDS011;73090;49.282;11.402;2023-12-04T02:22:07;12.13;;;6.95;;
83194;SDS011;73090;49.282;11.402;2023-12-04T02:26:12;13.63;;;8.10;;
83194;SDS011;73090;49.282;11.402;2023-12-04T02:30:19;8.77;;;4.70;;
83194;SDS011;73090;49.282;11.402;2023-12-04T02:34:23;8.98;;;4.03;;
83194;SDS011;73090;49.282;11.402;2023-12-04T02:38:26;14.55;;;7.50;;
83194;SDS011;73090;49.282;11.402;2023-12-04T02:42:28;14.32;;;8.98;;
83194;SDS011;73090;49.282;11.402;2023-12-04T02:46:30;16.63;;;7.25;;
83194;SDS011;73090;49.282;11.402;2023-12-04T02:50:32;9.65;;;6.10;;
83194;SDS011;73090;49.282;11.402;2023-12-04T02:54:33;15.05;;;7.15;;
83194;SDS011;73090;49.282;11.402;2023-12-04T02:58:35;23.55;;;12.50;;
83194;SDS011;73090;49.282;11.402;2023-12-04T03:02:37;16.02;;;8.88;;
83194;SDS011;73090;49.282;11.402;2023-12-04T03:06:38;19.60;;;8.48;;
83194;SDS011;73090;49.282;11.402;2023-12-04T03:10:40;17.23;;;8.68;;
83194;SDS011;73090;49.282;11.402;2023-12-04T03:14:42;21.42;;;8.75;;
83194;SDS011;73090;49.282;11.402;2023-12-04T03:18:43;17.30;;;7.13;;
83194;SDS011;73090;49.282;11.402;2023-12-04T03:22:46;17.55;;;8.60;;
83194;SDS011;73090;49.282;11.402;2023-12-04T03:26:47;9.85;;;6.72;;
83194;SDS011;73090;49.282;11.402;2023-12-04T03:30:49;17.05;;;6.38;;
83194;SDS011;73090;49.282;11.402;2023-12-04T03:34:50;11.77;;;6.35;;
83194;SDS011;73090;49.282;11.402;2023-12-04T03:38:52;11.60;;;7.53;;
83194;SDS011;73090;49.282;11.402;2023-12-04T03:42:54;11.00;;;7.10;;
83194;SDS011;73090;49.282;11.402;2023-12-04T03:46:55;12.15;;;5.30;;
83194;SDS011;73090;49.282;11.402;2023-12-04T03:51:00;9.50;;;5.78;;
83194;SDS011;73090;49.282;11.402;2023-12-04T03:55:02;8.90;;;5.22;;
83194;SDS011;73090;49.282;11.402;2023-12-04T03:59:04;9.90;;;6.50;;
83194;SDS011;73090;49.282;11.402;2023-12-04T04:03:06;13.20;;;5.72;;
83194;SDS011;73090;49.282;11.402;2023-12-04T04:07:09;16.88;;;8.35;;
83194;SDS011;73090;49.282;11.402;2023-12-04T04:11:10;13.80;;;6.43;;
83194;SDS011;73090;49.282;11.402;2023-12-04T04:15:13;14.57;;;6.72;;
83194;SDS011;73090;49.282;11.402;2023-12-04T04:19:14;7.47;;;5.03;;
83194;SDS011;73090;49.282;11.402;2023-12-04T04:23:17;19.45;;;10.50;;
83194;SDS011;73090;49.282;11.402;2023-12-04T04:27:18;12.38;;;5.95;;
83194;SDS011;73090;49.282;11.402;2023-12-04T04:31:20;17.73;;;9.57;;
83194;SDS011;73090;49.282;11.402;2023-12-04T04:35:22;15.43;;;6.80;;
83194;SDS011;73090;49.282;11.402;2023-12-04T04:39:23;14.70;;;6.22;;
83194;SDS011;73090;49.282;11.402;2023-12-04T04:43:25;19.90;;;10.10;;
83194;SDS011;73090;49.282;11.402;2023-12-04T04:47:26;4.93;;;3.20;;
83194;SDS011;73090;49.282;11.402;2023-12-04T04:51:28;12.05;;;9.38;;
83194;SDS011;73090;49.282;11.402;2023-12-04T04:55:30;7.43;;;4.60;;
83194;SDS011;73090;49.282;11.402;2023-12-04T04:59:49;13.48;;;6.95;;
83194;SDS011;73090;49.282;11.402;2023-12-04T05:03:50;11.27;;;5.22;;
83194;SDS011;73090;49.282;11.402;2023-12-04T05:07:52;9.98;;;6.97;;
83194;SDS011;73090;49.282;11.402;2023-12-04T05:11:54;15.13;;;6.65;;
83194;SDS011;73090;49.282;11.402;2023-12-04T05:15:55;29.77;;;8.32;;
83194;SDS011;73090;49.282;11.402;2023-12-04T05:19:57;13.70;;;7.68;;
83194;SDS011;73090;49.282;11.402;2023-12-04T05:23:59;10.73;;;8.35;;
83194;SDS011;73090;49.282;11.402;2023-12-04T05:28:02;13.50;;;8.13;;
83194;SDS011;73090;49.282;11.402;2023-12-04T05:32:04;21.00;;;9.45;;
83194;SDS011;73090;49.282;11.402;2023-12-04T05:36:06;4.55;;;4.07;;
83194;SDS011;73090;49.282;11.402;2023-12-04T05:40:08;21.27;;;10.07;;
83194;SDS011;73090;49.282;11.402;2023-12-04T05:44:12;18.13;;;8.80;;
83194;SDS011;73090;49.282;11.402;2023-12-04T05:48:14;20.33;;;9.50;;
83194;SDS011;73090;49.282;11.402;2023-12-04T05:52:16;13.52;;;7.13;;
83194;SDS011;73090;49.282;11.402;2023-12-04T05:56:18;13.00;;;8.10;;
83194;SDS011;73090;49.282;11.402;2023-12-04T06:00:20;14.48;;;5.93;;
83194;SDS011;73090;49.282;11.402;2023-12-04T06:04:26;11.43;;;6.63;;
83194;SDS011;73090;49.282;11.402;2023-12-04T06:08:28;18.05;;;11.18;;
83194;SDS011;73090;49.282;11.402;2023-12-04T06:12:30;19.45;;;10.20;;
83194;SDS011;73090;49.282;11.402;2023-12-04T06:16:32;15.18;;;7.10;;
83194;SDS011;73090;49.282;11.402;2023-12-04T06:20:33;10.27;;;6.53;;
83194;SDS011;73090;49.282;11.402;2023-12-04T06:24:35;18.42;;;7.15;;
83194;SDS011;73090;49.282;11.402;2023-12-04T06:28:37;14.02;;;7.10;;
83194;SDS011;73090;49.282;11.402;2023-12-04T06:32:39;16.73;;;7.68;;
83194;SDS011;73090;49.282;11.402;2023-12-04T06:36:41;16.35;;;7.20;;
83194;SDS011;73090;49.282;11.402;2023-12-04T06:40:43;11.65;;;7.10;;
83194;SDS011;73090;49.282;11.402;2023-12-04T06:44:45;9.30;;;6.03;;
83194;SDS011;73090;49.282;11.402;2023-12-04T06:48:47;7.03;;;4.28;;
83194;SDS011;73090;49.282;11.402;2023-12-04T06:52:50;6.97;;;4.32;;
83194;SDS011;73090;49.282;11.402;2023-12-04T06:56:52;4.25;;;2.95;;
83194;SDS011;73090;49.282;11.402;2023-12-04T07:00:53;7.82;;;4.55;;
83194;SDS011;73090;49.282;11.402;2023-12-04T07:04:55;6.22;;;3.75;;
83194;SDS011;73090;49.282;11.402;2023-12-04T07:08:57;8.13;;;4.05;;
83194;SDS011;73090;49.282;11.402;2023-12-04T07:12:59;5.82;;;4.55;;
83194;SDS011;73090;49.282;11.402;2023-12-04T07:17:00;5.05;;;4.05;;
83194;SDS011;73090;49.282;11.402;2023-12-04T07:21:02;6.85;;;4.10;;
83194;SDS011;73090;49.282;11.402;2023-12-04T07:25:05;10.20;;;4.68;;
83194;SDS011;73090;49.282;11.402;2023-12-04T07:29:11;6.80;;;3.00;;
83194;SDS011;73090;49.282;11.402;2023-12-04T07:33:12;9.80;;;6.32;;
83194;SDS011;73090;49.282;11.402;2023-12-04T07:37:14;9.75;;;5.57;;
83194;SDS011;73090;49.282;11.402;2023-12-04T07:41:19;7.95;;;4.18;;
83194;SDS011;73090;49.282;11.402;2023-12-04T07:45:32;6.00;;;4.95;;
83194;SDS011;73090;49.282;11.402;2023-12-04T07:49:35;10.70;;;3.97;;
83194;SDS011;73090;49.282;11.402;2023-12-04T07:53:37;18.20;;;8.25;;
83194;SDS011;73090;49.282;11.402;2023-12-04T07:57:39;10.07;;;6.20;;
83194;SDS011;73090;49.282;11.402;2023-12-04T08:01:41;18.58;;;9.57;;
83194;SDS011;73090;49.282;11.402;2023-12-04T08:05:42;14.70;;;6.47;;
83194;SDS011;73090;49.282;11.402;2023-12-04T08:09:44;9.38;;;5.80;;
83194;SDS011;73090;49.282;11.402;2023-12-04T08:13:46;11.00;;;6.05;;
83194;SDS011;73090;49.282;11.402;2023-12-04T08:17:47;10.90;;;6.65;;
83194;SDS011;73090;49.282;11.402;2023-12-04T08:21:49;8.30;;;4.28;;
83194;SDS011;73090;49.282;11.402;2023-12-04T08:25:51;6.63;;;4.60;;
83194;SDS011;73090;49.282;11.402;2023-12-04T08:29:53;4.72;;;3.95;;
83194;SDS011;73090;49.282;11.402;2023-12-04T08:33:55;6.70;;;4.88;;
83194;SDS011;73090;49.282;11.402;2023-12-04T08:37:57;4.55;;;3.50;;
83194;SDS011;73090;49.282;11.402;2023-12-04T08:41:59;6.53;;;3.75;;
83194;SDS011;73090;49.282;11.402;2023-12-04T08:46:07;8.98;;;4.68;;
83194;SDS011;73090;49.282;11.402;2023-12-04T08:54:15;5.00;;;3.38;;
83194;SDS011;73090;49.282;11.402;2023-12-04T08:58:18;2.63;;;2.42;;
83194;SDS011;73090;49.282;11.402;2023-12-04T09:02:20;8.05;;;4.82;;
83194;SDS011;73090;49.282;11.402;2023-12-04T09:06:22;7.22;;;5.25;;
83194;SDS011;73090;49.282;11.402;2023-12-04T09:10:44;2.45;;;1.70;;
83194;SDS011;73090;49.282;11.402;2023-12-04T09:15:07;3.33;;;3.10;;
83194;SDS011;73090;49.282;11.402;2023-12-04T09:19:10;5.50;;;2.65;;
83194;SDS011;73090;49.282;11.402;2023-12-04T09:23:12;3.88;;;3.47;;
83194;SDS011;73090;49.282;11.402;2023-12-04T09:27:13;3.05;;;2.10;;
83194;SDS011;73090;49.282;11.402;2023-12-04T09:31:15;4.57;;;2.95;;
83194;SDS011;73090;49.282;11.402;2023-12-04T09:35:17;2.40;;;2.00;;
83194;SDS011;73090;49.282;11.402;2023-12-04T09:39:20;4.05;;;3.75;;
83194;SDS011;73090;49.282;11.402;2023-12-04T09:43:22;7.40;;;2.35;;
83194;SDS011;73090;49.282;11.402;2023-12-04T09:47:24;3.58;;;2.50;;
83194;SDS011;73090;49.282;11.402;2023-12-04T09:51:27;3.03;;;2.22;;
83194;SDS011;73090;49.282;11.402;2023-12-04T09:55:29;3.72;;;1.67;;
83194;SDS011;73090;49.282;11.402;2023-12-04T09:59:32;4.25;;;3.85;;
83194;SDS011;73090;49.282;11.402;2023-12-04T10:03:37;3.72;;;2.17;;
83194;SDS011;73090;49.282;11.402;2023-12-04T10:07:40;5.30;;;2.22;;
83194;SDS011;73090;49.282;11.402;2023-12-04T10:11:41;3.40;;;2.40;;
83194;SDS011;73090;49.282;11.402;2023-12-04T10:15:49;3.13;;;2.55;;
83194;SDS011;73090;49.282;11.402;2023-12-04T10:20:03;4.22;;;2.67;;
83194;SDS011;73090;49.282;11.402;2023-12-04T10:24:12;3.40;;;1.75;;
83194;SDS011;73090;49.282;11.402;2023-12-04T10:28:14;5.40;;;3.53;;
83194;SDS011;73090;49.282;11.402;2023-12-04T10:32:19;4.20;;;2.30;;
83194;SDS011;73090;49.282;11.402;2023-12-04T10:36:23;5.07;;;2.78;;
83194;SDS011;73090;49.282;11.402;2023-12-04T10:40:28;5.72;;;2.17;;
83194;SDS011;73090;49.282;11.402;2023-12-04T10:44:32;2.55;;;1.60;;
83194;SDS011;73090;49.282;11.402;2023-12-04T10:48:34;4.80;;;4.30;;
83194;SDS011;73090;49.282;11.402;2023-12-04T10:52:36;3.72;;;2.47;;
83194;SDS011;73090;49.282;11.402;2023-12-04T10:56:37;4.65;;;3.00;;
83194;SDS011;73090;49.282;11.402;2023-12-04T11:00:45;3.80;;;2.45;;
83194;SDS011;73090;49.282;11.402;2023-12-04T11:04:50;6.90;;;2.45;;
83194;SDS011;73090;49.282;11.402;2023-12-04T11:08:55;4.00;;;2.10;;
83194;SDS011;73090;49.282;11.402;2023-12-04T11:13:04;4.45;;;3.17;;
83194;SDS011;73090;49.282;11.402;2023-12-04T11:17:12;3.63;;;3.33;;
83194;SDS011;73090;49.282;11.402;2023-12-04T11:21:15;7.95;;;5.05;;
83194;SDS011;73090;49.282;11.402;2023-12-04T11:25:21;5.18;;;3.05;;
83194;SDS011;73090;49.282;11.402;2023-12-04T11:29:26;3.70;;;1.80;;
83194;SDS011;73090;49.282;11.402;2023-12-04T11:33:34;5.22;;;2.90;;
83194;SDS011;73090;49.282;11.402;2023-12-04T11:37:39;6.07;;;3.55;;
83194;SDS011;73090;49.282;11.402;2023-12-04T11:41:42;5.13;;;2.22;;
83194;SDS011;73090;49.282;11.402;2023-12-04T11:45:44;5.03;;;2.47;;
83194;SDS011;73090;49.282;11.402;2023-12-04T11:49:50;6.80;;;2.90;;
83194;SDS011;73090;49.282;11.402;2023-12-04T11:53:51;5.18;;;3.22;;
83194;SDS011;73090;49.282;11.402;2023-12-04T11:57:54;3.00;;;2.42;;
83194;SDS011;73090;49.282;11.402;2023-12-04T12:01:57;5.10;;;3.78;;
83194;SDS011;73090;49.282;11.402;2023-12-04T12:05:59;4.97;;;2.60;;
83194;SDS011;73090;49.282;11.402;2023-12-04T12:10:02;7.70;;;3.22;;
83194;SDS011;73090;49.282;11.402;2023-12-04T12:14:04;5.72;;;2.92;;
83194;SDS011;73090;49.282;11.402;2023-12-04T12:18:06;2.75;;;1.63;;
83194;SDS011;73090;49.282;11.402;2023-12-04T12:22:08;7.55;;;3.08;;
83194;SDS011;73090;49.282;11.402;2023-12-04T12:26:10;3.97;;;2.00;;
83194;SDS011;73090;49.282;11.402;2023-12-04T12:30:12;5.32;;;2.83;;
83194;SDS011;73090;49.282;11.402;2023-12-04T12:34:14;4.82;;;3.28;;
83194;SDS011;73090;49.282;11.402;2023-12-04T12:38:16;7.70;;;5.38;;
83194;SDS011;73090;49.282;11.402;2023-12-04T12:42:26;4.75;;;3.63;;
83194;SDS011;73090;49.282;11.402;2023-12-04T12:46:29;4.30;;;2.50;;
83194;SDS011;73090;49.282;11.402;2023-12-04T12:50:31;5.47;;;3.50;;
83194;SDS011;73090;49.282;11.402;2023-12-04T12:54:36;4.30;;;3.58;;
83194;SDS011;73090;49.282;11.402;2023-12-04T12:58:38;4.88;;;4.30;;
83194;SDS011;73090;49.282;11.402;2023-12-04T13:02:40;6.00;;;3.63;;
83194;SDS011;73090;49.282;11.402;2023-12-04T13:06:42;5.55;;;4.32;;
83194;SDS011;73090;49.282;11.402;2023-12-04T13:10:44;2.72;;;1.58;;
83194;SDS011;73090;49.282;11.402;2023-12-04T13:14:46;5.07;;;2.83;;
83194;SDS011;73090;49.282;11.402;2023-12-04T13:18:47;6.80;;;3.25;;
83194;SDS011;73090;49.282;11.402;2023-12-04T13:22:49;8.05;;;3.13;;
83194;SDS011;73090;49.282;11.402;2023-12-04T13:26:51;3.08;;;1.90;;
83194;SDS011;73090;49.282;11.402;2023-12-04T13:30:52;8.60;;;3.20;;
83194;SDS011;73090;49.282;11.402;2023-12-04T13:34:54;7.00;;;3.58;;
83194;SDS011;73090;49.282;11.402;2023-12-04T13:38:57;5.47;;;3.10;;
83194;SDS011;73090;49.282;11.402;2023-12-04T13:42:58;8.82;;;4.60;;
83194;SDS011;73090;49.282;11.402;2023-12-04T13:47:19;6.97;;;3.75;;
83194;SDS011;73090;49.282;11.402;2023-12-04T13:51:20;2.67;;;2.45;;
83194;SDS011;73090;49.282;11.402;2023-12-04T13:55:25;7.60;;;3.88;;
83194;SDS011;73090;49.282;11.402;2023-12-04T13:59:39;10.73;;;5.25;;
83194;SDS011;73090;49.282;11.402;2023-12-04T14:03:41;5.65;;;3.83;;
83194;SDS011;73090;49.282;11.402;2023-12-04T14:07:44;4.47;;;2.33;;
83194;SDS011;73090;49.282;11.402;2023-12-04T14:11:46;8.10;;;4.47;;
83194;SDS011;73090;49.282;11.402;2023-12-04T14:15:50;8.00;;;3.50;;
83194;SDS011;73090;49.282;11.402;2023-12-04T14:19:52;4.85;;;2.90;;
83194;SDS011;73090;49.282;11.402;2023-12-04T14:23:53;7.13;;;3.92;;
83194;SDS011;73090;49.282;11.402;2023-12-04T14:27:55;6.13;;;4.25;;
83194;SDS011;73090;49.282;11.402;2023-12-04T14:31:57;10.93;;;4.75;;
83194;SDS011;73090;49.282;11.402;2023-12-04T14:35:59;6.88;;;4.25;;
83194;SDS011;73090;49.282;11.402;2023-12-04T14:40:01;9.82;;;5.15;;
83194;SDS011;73090;49.282;11.402;2023-12-04T14:44:04;6.78;;;3.95;;
83194;SDS011;73090;49.282;11.402;2023-12-04T14:48:05;10.70;;;5.60;;
83194;SDS011;73090;49.282;11.402;2023-12-04T14:52:10;7.85;;;4.35;;
83194;SDS011;73090;49.282;11.402;2023-12-04T14:56:12;8.85;;;4.07;;
83194;SDS011;73090;49.282;11.402;2023-12-04T15:00:29;9.50;;;5.28;;
83194;SDS011;73090;49.282;11.402;2023-12-04T15:04:49;7.40;;;5.82;;
83194;SDS011;73090;49.282;11.402;2023-12-04T15:09:06;10.15;;;5.30;;
83194;SDS011;73090;49.282;11.402;2023-12-04T15:13:26;11.55;;;4.95;;
83194;SDS011;73090;49.282;11.402;2023-12-04T15:17:44;8.32;;;5.05;;
83194;SDS011;73090;49.282;11.402;2023-12-04T15:21:52;12.13;;;6.25;;
83194;SDS011;73090;49.282;11.402;2023-12-04T15:25:54;7.45;;;5.00;;
83194;SDS011;73090;49.282;11.402;2023-12-04T15:29:57;9.05;;;4.78;;
83194;SDS011;73090;49.282;11.402;2023-12-04T15:33:59;7.70;;;4.15;;
83194;SDS011;73090;49.282;11.402;2023-12-04T15:38:01;9.27;;;4.30;;
83194;SDS011;73090;49.282;11.402;2023-12-04T15:42:03;9.13;;;4.03;;
83194;SDS011;73090;49.282;11.402;2023-12-04T15:46:08;9.65;;;5.18;;
83194;SDS011;73090;49.282;11.402;2023-12-04T15:50:09;5.65;;;3.65;;
83194;SDS011;73090;49.282;11.402;2023-12-04T15:54:11;9.10;;;3.95;;
83194;SDS011;73090;49.282;11.402;2023-12-04T15:58:13;10.80;;;4.90;;
83194;SDS011;73090;49.282;11.402;2023-12-04T16:02:14;6.40;;;4.28;;
83194;SDS011;73090;49.282;11.402;2023-12-04T16:06:16;6.13;;;3.97;;
83194;SDS011;73090;49.282;11.402;2023-12-04T16:10:18;5.63;;;3.50;;
83194;SDS011;73090;49.282;11.402;2023-12-04T16:14:20;9.68;;;5.72;;
83194;SDS011;73090;49.282;11.402;2023-12-04T16:18:22;4.53;;;3.45;;
83194;SDS011;73090;49.282;11.402;2023-12-04T16:22:24;11.80;;;5.90;;
83194;SDS011;73090;49.282;11.402;2023-12-04T16:26:26;5.57;;;4.25;;
83194;SDS011;73090;49.282;11.402;2023-12-04T16:30:27;9.38;;;5.90;;
83194;SDS011;73090;49.282;11.402;2023-12-04T16:34:29;6.88;;;4.03;;
83194;SDS011;73090;49.282;11.402;2023-12-04T16:38:31;10.27;;;4.80;;
83194;SDS011;73090;49.282;11.402;2023-12-04T16:42:32;9.25;;;6.55;;
83194;SDS011;73090;49.282;11.402;2023-12-04T16:46:34;6.43;;;4.05;;
83194;SDS011;73090;49.282;11.402;2023-12-04T16:50:36;9.65;;;5.55;;
83194;SDS011;73090;49.282;11.402;2023-12-04T16:54:38;6.15;;;4.60;;
83194;SDS011;73090;49.282;11.402;2023-12-04T16:58:42;11.57;;;9.43;;
83194;SDS011;73090;49.282;11.402;2023-12-04T17:02:44;11.38;;;5.75;;
83194;SDS011;73090;49.282;11.402;2023-12-04T17:06:46;15.27;;;6.75;;
83194;SDS011;73090;49.282;11.402;2023-12-04T17:10:47;14.82;;;6.88;;
83194;SDS011;73090;49.282;11.402;2023-12-04T17:14:49;11.77;;;7.15;;
83194;SDS011;73090;49.282;11.402;2023-12-04T17:18:51;27.08;;;9.82;;
83194;SDS011;73090;49.282;11.402;2023-12-04T17:22:52;14.48;;;6.85;;
83194;SDS011;73090;49.282;11.402;2023-12-04T17:26:55;16.75;;;7.65;;
83194;SDS011;73090;49.282;11.402;2023-12-04T17:30:57;9.77;;;5.00;;
83194;SDS011;73090;49.282;11.402;2023-12-04T17:34:58;14.05;;;6.97;;
83194;SDS011;73090;49.282;11.402;2023-12-04T17:39:00;10.75;;;4.65;;
83194;SDS011;73090;49.282;11.402;2023-12-04T17:43:02;6.93;;;4.80;;
83194;SDS011;73090;49.282;11.402;2023-12-04T17:47:03;7.45;;;4.60;;
83194;SDS011;73090;49.282;11.402;2023-12-04T17:51:06;8.82;;;5.18;;
83194;SDS011;73090;49.282;11.402;2023-12-04T17:55:08;10.18;;;5.38;;
83194;SDS011;73090;49.282;11.402;2023-12-04T17:59:13;12.63;;;5.45;;
83194;SDS011;73090;49.282;11.402;2023-12-04T18:03:15;9.45;;;5.78;;
83194;SDS011;73090;49.282;11.402;2023-12-04T18:07:17;8.23;;;5.13;;
83194;SDS011;73090;49.282;11.402;2023-12-04T18:11:19;9.05;;;5.70;;
83194;SDS011;73090;49.282;11.402;2023-12-04T18:15:21;12.65;;;5.28;;
83194;SDS011;73090;49.282;11.402;2023-12-04T18:19:22;11.00;;;5.60;;
83194;SDS011;73090;49.282;11.402;2023-12-04T18:23:24;11.00;;;6.60;;
83194;SDS011;73090;49.282;11.402;2023-12-04T18:27:26;13.85;;;5.78;;
83194;SDS011;73090;49.282;11.402;2023-12-04T18:31:28;10.60;;;6.47;;
83194;SDS011;73090;49.282;11.402;2023-12-04T18:35:30;22.42;;;9.60;;
83194;SDS011;73090;49.282;11.402;2023-12-04T18:39:32;16.08;;;7.57;;
83194;SDS011;73090;49.282;11.402;2023-12-04T18:43:34;13.32;;;5.68;;
83194;SDS011;73090;49.282;11.402;2023-12-04T18:47:36;16.73;;;8.68;;
83194;SDS011;73090;49.282;11.402;2023-12-04T18:51:44;23.42;;;10.95;;
83194;SDS011;73090;49.282;11.402;2023-12-04T18:55:46;18.25;;;9.48;;
83194;SDS011;73090;49.282;11.402;2023-12-04T18:59:47;14.02;;;7.47;;
83194;SDS011;73090;49.282;11.402;2023-12-04T19:03:49;13.60;;;8.60;;
83194;SDS011;73090;49.282;11.402;2023-12-04T19:07:51;12.38;;;7.57;;
83194;SDS011;73090;49.282;11.402;2023-12-04T19:11:53;9.45;;;5.90;;
83194;SDS011;73090;49.282;11.402;2023-12-04T19:15:55;22.30;;;9.35;;
83194;SDS011;73090;49.282;11.402;2023-12-04T19:19:59;20.45;;;9.25;;
83194;SDS011;73090;49.282;11.402;2023-12-04T19:24:04;20.05;;;9.23;;
83194;SDS011;73090;49.282;11.402;2023-12-04T19:28:06;13.75;;;6.93;;
83194;SDS011;73090;49.282;11.402;2023-12-04T19:32:08;8.80;;;5.40;;
83194;SDS011;73090;49.282;11.402;2023-12-04T19:36:10;20.80;;;9.00;;
83194;SDS011;73090;49.282;11.402;2023-12-04T19:40:13;25.60;;;11.55;;
83194;SDS011;73090;49.282;11.402;2023-12-04T19:44:15;11.35;;;7.97;;
83194;SDS011;73090;49.282;11.402;2023-12-04T19:48:17;19.73;;;9.73;;
83194;SDS011;73090;49.282;11.402;2023-12-04T19:52:19;11.07;;;7.15;;
83194;SDS011;73090;49.282;11.402;2023-12-04T19:56:20;19.85;;;7.80;;
83194;SDS011;73090;49.282;11.402;2023-12-04T20:00:22;13.52;;;8.70;;
83194;SDS011;73090;49.282;11.402;2023-12-04T20:04:24;17.30;;;8.23;;
83194;SDS011;73090;49.282;11.402;2023-12-04T20:08:26;13.98;;;7.00;;
83194;SDS011;73090;49.282;11.402;2023-12-04T20:12:28;13.23;;;7.18;;
83194;SDS011;73090;49.282;11.402;2023-12-04T20:16:31;14.73;;;7.15;;
83194;SDS011;73090;49.282;11.402;2023-12-04T20:20:32;16.80;;;6.75;;
83194;SDS011;73090;49.282;11.402;2023-12-04T20:24:34;11.25;;;6.78;;
83194;SDS011;73090;49.282;11.402;2023-12-04T20:28:36;13.20;;;7.78;;
83194;SDS011;73090;49.282;11.402;2023-12-04T20:32:38;19.85;;;10.65;;
83194;SDS011;73090;49.282;11.402;2023-12-04T20:36:40;9.00;;;5.28;;
83194;SDS011;73090;49.282;11.402;2023-12-04T20:40:43;8.52;;;5.80;;
83194;SDS011;73090;49.282;11.402;2023-12-04T20:44:46;11.93;;;6.75;;
83194;SDS011;73090;49.282;11.402;2023-12-04T20:48:48;19.30;;;7.50;;
83194;SDS011;73090;49.282;11.402;2023-12-04T20:52:52;16.70;;;9.75;;
83194;SDS011;73090;49.282;11.402;2023-12-04T20:56:53;15.13;;;9.30;;
83194;SDS011;73090;49.282;11.402;2023-12-04T21:00:55;23.20;;;9.80;;
83194;SDS011;73090;49.282;11.402;2023-12-04T21:04:57;18.90;;;11.30;;
83194;SDS011;73090;49.282;11.402;2023-12-04T21:08:59;11.63;;;7.25;;
83194;SDS011;73090;49.282;11.402;2023-12-04T21:13:01;12.40;;;7.10;;
83194;SDS011;73090;49.282;11.402;2023-12-04T21:17:02;11.98;;;6.60;;
83194;SDS011;73090;49.282;11.402;2023-12-04T21:21:04;14.25;;;8.57;;
83194;SDS011;73090;49.282;11.402;2023-12-04T21:25:07;18.13;;;9.38;;
83194;SDS011;73090;49.282;11.402;2023-12-04T21:29:10;21.80;;;10.35;;
83194;SDS011;73090;49.282;11.402;2023-12-04T21:33:11;18.75;;;8.52;;
83194;SDS011;73090;49.282;11.402;2023-12-04T21:37:13;15.50;;;8.07;;
83194;SDS011;73090;49.282;11.402;2023-12-04T21:41:15;8.60;;;5.70;;
83194;SDS011;73090;49.282;11.402;2023-12-04T21:45:17;13.40;;;8.05;;
83194;SDS011;73090;49.282;11.402;2023-12-04T21:49:22;6.93;;;4.40;;
83194;SDS011;73090;49.282;11.402;2023-12-04T21:53:25;14.25;;;7.10;;
83194;SDS011;73090;49.282;11.402;2023-12-04T21:57:27;6.85;;;4.78;;
83194;SDS011;73090;49.282;11.402;2023-12-04T22:01:29;17.73;;;7.00;;
83194;SDS011;73090;49.282;11.402;2023-12-04T22:05:31;11.85;;;6.72;;
83194;SDS011;73090;49.282;11.402;2023-12-04T22:09:32;10.68;;;5.85;;
83194;SDS011;73090;49.282;11.402;2023-12-04T22:13:34;6.30;;;5.00;;
83194;SDS011;73090;49.282;11.402;2023-12-04T22:17:36;11.70;;;5.95;;
83194;SDS011;73090;49.282;11.402;2023-12-04T22:21:39;10.88;;;5.75;;
83194;SDS011;73090;49.282;11.402;2023-12-04T22:25:40;11.43;;;5.28;;
83194;SDS011;73090;49.282;11.402;2023-12-04T22:29:42;11.23;;;5.18;;
83194;SDS011;73090;49.282;11.402;2023-12-04T22:33:43;7.85;;;5.55;;
83194;SDS011;73090;49.282;11.402;2023-12-04T22:37:45;11.93;;;7.72;;
83194;SDS011;73090;49.282;11.402;2023-12-04T22:41:49;11.65;;;5.18;;
83194;SDS011;73090;49.282;11.402;2023-12-04T22:45:51;15.55;;;8.45;;
83194;SDS011;73090;49.282;11.402;2023-12-04T22:49:53;14.10;;;7.43;;
83194;SDS011;73090;49.282;11.402;2023-12-04T22:53:55;11.07;;;6.38;;
83194;SDS011;73090;49.282;11.402;2023-12-04T22:57:56;14.10;;;8.13;;
83194;SDS011;73090;49.282;11.402;2023-12-04T23:01:58;11.45;;;7.13;;
83194;SDS011;73090;49.282;11.402;2023-12-04T23:06:00;14.82;;;8.00;;
83194;SDS011;73090;49.282;11.402;2023-12-04T23:10:02;10.18;;;5.68;;
83194;SDS011;73090;49.282;11.402;2023-12-04T23:14:07;16.20;;;6.85;;
83194;SDS011;73090;49.282;11.402;2023-12-04T23:18:09;12.85;;;6.65;;
83194;SDS011;73090;49.282;11.402;2023-12-04T23:22:11;12.25;;;7.07;;
83194;SDS011;73090;49.282;11.402;2023-12-04T23:26:13;12.93;;;7.15;;
83194;SDS011;73090;49.282;11.402;2023-12-04T23:30:15;6.80;;;4.38;;
83194;SDS011;73090;49.282;11.402;2023-12-04T23:34:17;18.85;;;10.48;;
83194;SDS011;73090;49.282;11.402;2023-12-04T23:38:19;12.38;;;7.45;;
83194;SDS011;73090;49.282;11.402;2023-12-04T23:42:21;14.88;;;7.50;;
83194;SDS011;73090;49.282;11.402;2023-12-04T23:46:23;15.10;;;7.65;;
83194;SDS011;73090;49.282;11.402;2023-12-04T23:50:24;17.27;;;6.50;;